Terminal Aerodrome Forecast
Issued by NWS

Home | Current Version | Previous Version | Text Only | Print | Product List | Glossary On
Versions: 1 2 3 4 5 6 7 8 9 10 11 12 13 14 15 16 17 18 19 20 21 22 23 24 25 26 27 28 29 30
641
FTUS45 KSLC 310043 AAA
TAFENV
TAF AMD
KENV 310043Z 3101/3124 27018G45KT P6SM VCTS SCT100CB BKN120
     FM310300 05010KT P6SM FEW120 SCT150
     FM311400 12005KT P6SM SCT150
     FM312100 32011KT P6SM SCT110 BKN140
      AMD LTD TO CLD VIS AND WIND=

USA.gov is the U.S. government's official web portal to all federal, state and local government web resources and services.